createdAt,value
2018-05-09T00:01:42.539Z,16.80
2018-05-09T00:04:10.171Z,16.85
2018-05-09T00:06:37.779Z,16.87
2018-05-09T00:09:05.947Z,16.86
2018-05-09T00:11:33.538Z,16.84
2018-05-09T00:14:03.463Z,16.79
2018-05-09T00:16:31.044Z,16.75
2018-05-09T00:18:58.611Z,16.68
2018-05-09T00:21:26.343Z,16.65
2018-05-09T00:23:53.985Z,16.61
2018-05-09T00:26:21.573Z,16.55
2018-05-09T00:28:49.197Z,16.44
2018-05-09T00:31:16.825Z,16.38
2018-05-09T00:33:44.393Z,16.30
2018-05-09T00:36:12.016Z,16.27
2018-05-09T00:38:39.604Z,16.16
2018-05-09T00:41:07.252Z,16.03
2018-05-09T00:43:34.881Z,15.94
2018-05-09T00:46:02.460Z,15.81
2018-05-09T00:48:30.049Z,15.70
2018-05-09T00:50:57.755Z,15.67
2018-05-09T00:53:25.355Z,15.60
2018-05-09T00:55:52.928Z,15.54
2018-05-09T00:58:20.604Z,15.46
2018-05-09T01:00:48.395Z,15.35
2018-05-09T01:03:16.028Z,15.28
2018-05-09T01:05:43.729Z,15.24
2018-05-09T01:08:11.303Z,15.22
2018-05-09T01:10:38.944Z,15.15
2018-05-09T01:13:06.649Z,15.11
2018-05-09T01:15:34.311Z,15.05
2018-05-09T01:18:01.960Z,15.05
2018-05-09T01:20:29.632Z,15.12
2018-05-09T01:22:57.200Z,15.13
2018-05-09T01:25:24.757Z,15.18
2018-05-09T01:27:52.538Z,15.18
2018-05-09T01:30:20.107Z,15.21
2018-05-09T01:32:47.687Z,15.25
2018-05-09T01:35:15.380Z,15.30
2018-05-09T01:37:42.940Z,15.31
2018-05-09T01:40:10.555Z,15.36
2018-05-09T01:42:38.209Z,15.34
2018-05-09T01:45:06.515Z,15.32
2018-05-09T01:47:34.147Z,15.35
2018-05-09T01:50:01.885Z,15.37
2018-05-09T01:52:29.453Z,15.37
2018-05-09T01:54:57.091Z,15.31
2018-05-09T01:57:24.836Z,15.28
2018-05-09T01:59:52.477Z,15.21
2018-05-09T02:02:20.299Z,15.16
2018-05-09T02:04:47.980Z,15.08
2018-05-09T02:07:15.603Z,14.97
2018-05-09T02:09:43.176Z,14.95
2018-05-09T02:12:10.852Z,14.92
2018-05-09T02:14:38.434Z,14.93
2018-05-09T02:17:06.019Z,15.05
2018-05-09T02:19:33.652Z,15.17
2018-05-09T02:22:01.243Z,15.16
2018-05-09T02:24:28.871Z,15.11
2018-05-09T02:26:56.548Z,15.10
2018-05-09T02:29:24.188Z,15.12
2018-05-09T02:31:51.781Z,15.12
2018-05-09T02:34:19.568Z,15.01
2018-05-09T02:36:47.143Z,14.91
2018-05-09T02:39:14.776Z,14.77
2018-05-09T02:41:42.384Z,14.66
2018-05-09T02:44:10.030Z,14.59
2018-05-09T02:46:37.640Z,14.51
2018-05-09T02:49:05.269Z,14.52
2018-05-09T02:51:33.456Z,14.48
2018-05-09T02:54:01.104Z,14.43
2018-05-09T02:56:28.812Z,14.48
2018-05-09T02:58:56.452Z,14.55
2018-05-09T03:01:24.041Z,14.58
2018-05-09T03:03:51.655Z,14.62
2018-05-09T03:06:19.289Z,14.67
2018-05-09T03:08:46.869Z,14.71
2018-05-09T03:11:14.548Z,14.70
2018-05-09T03:13:42.110Z,14.66
2018-05-09T03:16:09.740Z,14.50
2018-05-09T03:18:37.431Z,14.39
2018-05-09T03:21:05.003Z,14.33
2018-05-09T03:23:32.639Z,14.24
2018-05-09T03:26:00.310Z,14.18
2018-05-09T03:28:27.872Z,14.17
2018-05-09T03:30:55.428Z,14.12
2018-05-09T03:33:23.096Z,14.10
2018-05-09T03:35:50.700Z,14.07
2018-05-09T03:38:18.326Z,14.07
2018-05-09T03:40:46.051Z,14.10
2018-05-09T03:43:14.248Z,14.15
2018-05-09T03:45:41.828Z,14.13
2018-05-09T03:48:09.579Z,14.11
2018-05-09T03:50:37.143Z,14.12
2018-05-09T03:53:04.820Z,14.19
2018-05-09T03:55:33.363Z,14.23
2018-05-09T03:58:00.989Z,14.23
2018-05-09T04:00:28.638Z,14.27
2018-05-09T04:03:08.276Z,14.38
2018-05-09T04:05:47.835Z,14.50
2018-05-09T04:08:27.241Z,14.62
2018-05-09T04:10:54.827Z,14.76
2018-05-09T04:13:22.414Z,14.91
2018-05-09T04:15:50.110Z,14.98
2018-05-09T04:18:17.688Z,15.06
2018-05-09T04:20:45.423Z,15.14
2018-05-09T04:23:13.084Z,15.18
2018-05-09T04:25:40.652Z,15.22
2018-05-09T04:28:08.239Z,15.28
2018-05-09T04:30:36.009Z,15.33
2018-05-09T04:33:03.677Z,15.39
2018-05-09T04:35:31.257Z,15.51
2018-05-09T04:37:58.964Z,15.66
2018-05-09T04:40:26.606Z,15.83
2018-05-09T04:42:54.196Z,16.00
2018-05-09T04:45:21.827Z,16.16
2018-05-09T04:47:49.406Z,16.32
2018-05-09T04:50:16.988Z,16.45
2018-05-09T04:52:44.691Z,16.59
2018-05-09T04:55:12.344Z,16.69
2018-05-09T04:57:39.977Z,16.84
2018-05-09T05:00:07.668Z,16.99
2018-05-09T05:02:35.304Z,17.18
2018-05-09T05:05:02.899Z,17.35
2018-05-09T05:07:31.212Z,17.58
2018-05-09T05:09:58.796Z,17.84
2018-05-09T05:12:26.383Z,18.19
2018-05-09T05:14:54.065Z,18.60
2018-05-09T05:17:21.702Z,19.04
2018-05-09T05:19:49.372Z,19.36
2018-05-09T05:22:17.005Z,19.74
2018-05-09T05:24:44.591Z,20.07
2018-05-09T05:27:12.175Z,20.39
2018-05-09T05:29:39.881Z,20.68
2018-05-09T05:32:07.541Z,20.97
2018-05-09T05:34:35.125Z,21.38
2018-05-09T05:37:02.765Z,21.67
2018-05-09T05:39:30.403Z,21.95
2018-05-09T05:41:58.017Z,22.21
2018-05-09T05:44:26.163Z,22.54
2018-05-09T05:46:53.805Z,22.82
2018-05-09T05:49:21.423Z,23.11
2018-05-09T05:51:49.252Z,23.32
2018-05-09T05:54:16.874Z,23.48
2018-05-09T05:56:44.456Z,23.58
2018-05-09T05:59:12.117Z,23.64
2018-05-09T06:01:39.764Z,23.78
2018-05-09T06:04:07.337Z,24.09
2018-05-09T06:06:34.969Z,24.23
2018-05-09T06:09:02.535Z,24.20
2018-05-09T06:11:30.180Z,24.31
2018-05-09T06:13:57.828Z,24.30
2018-05-09T06:16:25.444Z,24.31
2018-05-09T06:18:53.093Z,24.30
2018-05-09T06:21:20.721Z,24.45
2018-05-09T06:23:48.294Z,24.56
2018-05-09T06:26:15.965Z,24.67
2018-05-09T06:28:43.686Z,24.82
2018-05-09T06:31:11.342Z,24.95
2018-05-09T06:33:38.937Z,24.98
2018-05-09T06:36:06.599Z,24.69
2018-05-09T06:38:34.191Z,24.52
2018-05-09T06:41:01.761Z,23.98
2018-05-09T06:46:39.260Z,23.07
2018-05-09T06:49:07.055Z,22.85
2018-05-09T06:51:34.632Z,22.51
2018-05-09T06:54:02.209Z,22.65
2018-05-09T06:56:29.952Z,22.94
2018-05-09T06:58:57.585Z,23.15
2018-05-09T07:01:25.173Z,23.52
2018-05-09T07:03:53.299Z,23.73
2018-05-09T07:06:20.996Z,24.03
2018-05-09T07:08:48.501Z,24.14
2018-05-09T07:11:16.164Z,24.03
2018-05-09T07:13:43.753Z,24.28
2018-05-09T07:16:11.392Z,24.59
2018-05-09T07:18:39.747Z,24.64
2018-05-09T07:21:08.087Z,24.73
2018-05-09T07:23:35.691Z,24.74
2018-05-09T07:26:03.423Z,25.06
2018-05-09T07:28:31.096Z,24.93
2018-05-09T07:30:59.417Z,25.18
2018-05-09T07:33:27.421Z,25.26
2018-05-09T07:35:55.559Z,25.22
2018-05-09T07:38:23.169Z,25.38
2018-05-09T07:40:50.803Z,25.59
2018-05-09T07:43:18.375Z,25.60
2018-05-09T07:45:46.428Z,25.60
2018-05-09T07:48:14.759Z,25.45
2018-05-09T07:50:42.340Z,25.46
2018-05-09T07:53:09.975Z,25.50
2018-05-09T07:55:37.767Z,25.68
2018-05-09T07:58:05.424Z,25.72
2018-05-09T08:00:33.009Z,25.90
2018-05-09T08:03:00.719Z,26.07
2018-05-09T08:05:28.367Z,26.15
2018-05-09T08:07:55.937Z,26.26
2018-05-09T08:10:23.612Z,26.43
2018-05-09T08:12:51.259Z,26.73
2018-05-09T08:15:18.781Z,26.59
2018-05-09T08:17:46.407Z,26.81
2018-05-09T08:20:13.976Z,26.42
2018-05-09T08:22:41.573Z,26.47
2018-05-09T08:25:09.280Z,26.38
2018-05-09T08:27:37.622Z,26.24
2018-05-09T08:30:05.880Z,26.06
2018-05-09T08:32:33.588Z,25.81
2018-05-09T08:35:01.165Z,25.63
2018-05-09T08:37:28.744Z,25.84
2018-05-09T08:39:56.377Z,26.03
2018-05-09T08:42:23.963Z,26.03
2018-05-09T08:44:51.544Z,26.03
2018-05-09T08:47:19.220Z,26.46
2018-05-09T08:49:46.804Z,26.64
2018-05-09T08:52:14.379Z,26.96
2018-05-09T08:54:42.081Z,26.80
2018-05-09T08:57:09.759Z,26.94
2018-05-09T08:59:37.335Z,26.83
2018-05-09T09:02:04.996Z,26.66
2018-05-09T09:04:32.584Z,26.38
2018-05-09T09:07:00.178Z,26.10
2018-05-09T09:09:27.787Z,25.85
2018-05-09T09:11:55.350Z,25.96
2018-05-09T09:14:22.943Z,25.81
2018-05-09T09:16:50.563Z,25.87
2018-05-09T09:19:18.136Z,25.68
2018-05-09T09:21:45.707Z,25.51
2018-05-09T09:24:13.324Z,25.59
2018-05-09T09:26:40.903Z,25.73
2018-05-09T09:29:08.583Z,26.12
2018-05-09T09:31:36.259Z,26.32
2018-05-09T09:34:03.852Z,26.73
2018-05-09T09:36:31.473Z,26.99
2018-05-09T09:38:59.179Z,26.97
2018-05-09T09:41:26.836Z,27.14
2018-05-09T09:43:54.361Z,27.18
2018-05-09T09:46:21.971Z,27.37
2018-05-09T09:48:49.607Z,27.48
2018-05-09T09:51:17.168Z,27.62
2018-05-09T09:53:44.887Z,27.57
2018-05-09T09:56:12.761Z,27.94
2018-05-09T09:58:40.408Z,27.84
2018-05-09T10:01:08.092Z,27.89
2018-05-09T10:03:35.734Z,27.68
2018-05-09T10:06:03.333Z,27.65
2018-05-09T10:08:31.004Z,27.84
2018-05-09T10:10:58.607Z,27.75
2018-05-09T10:13:26.800Z,27.96
2018-05-09T10:15:54.503Z,27.93
2018-05-09T10:18:22.124Z,28.16
2018-05-09T10:20:49.800Z,28.60
2018-05-09T10:23:17.555Z,28.78
2018-05-09T10:25:45.165Z,28.37
2018-05-09T10:28:12.756Z,28.32
2018-05-09T10:30:40.408Z,28.23
2018-05-09T10:33:08.034Z,27.79
2018-05-09T10:35:35.619Z,27.38
2018-05-09T10:38:03.331Z,26.98
2018-05-09T10:40:30.985Z,26.15
2018-05-09T10:42:58.617Z,25.53
2018-05-09T10:45:26.253Z,25.48
2018-05-09T10:47:53.844Z,25.79
2018-05-09T10:50:21.479Z,26.38
2018-05-09T10:52:49.267Z,26.70
2018-05-09T10:55:16.847Z,26.86
2018-05-09T10:57:44.418Z,27.21
2018-05-09T11:00:13.317Z,27.53
2018-05-09T11:02:41.367Z,27.87
2018-05-09T11:05:09.005Z,28.07
2018-05-09T11:07:36.615Z,28.30
2018-05-09T11:10:04.266Z,28.16
2018-05-09T11:12:31.841Z,27.99
2018-05-09T11:14:59.480Z,27.81
2018-05-09T11:17:27.085Z,28.07
2018-05-09T11:19:54.724Z,28.22
2018-05-09T11:22:22.408Z,28.30
2018-05-09T11:24:49.984Z,28.29
2018-05-09T11:27:17.632Z,28.11
2018-05-09T11:29:45.244Z,28.27
2018-05-09T11:32:12.830Z,28.40
2018-05-09T11:34:40.433Z,28.52
2018-05-09T11:37:08.140Z,28.66
2018-05-09T11:39:35.806Z,28.45
2018-05-09T11:42:03.393Z,28.35
2018-05-09T11:44:31.094Z,28.43
2018-05-09T11:46:58.680Z,28.52
2018-05-09T11:49:26.326Z,28.46
2018-05-09T11:51:53.953Z,28.20
2018-05-09T11:54:21.549Z,28.24
2018-05-09T11:56:49.197Z,27.98
2018-05-09T11:59:16.869Z,27.39
2018-05-09T12:01:44.503Z,27.32
2018-05-09T12:04:12.155Z,27.55
2018-05-09T12:06:39.899Z,27.54
2018-05-09T12:09:07.537Z,27.39
2018-05-09T12:11:35.109Z,27.61
2018-05-09T12:14:03.376Z,27.74
2018-05-09T12:16:30.959Z,27.60
2018-05-09T12:18:58.540Z,27.65
2018-05-09T12:21:26.172Z,27.66
2018-05-09T12:23:53.756Z,27.86
2018-05-09T12:26:21.398Z,27.86
2018-05-09T12:28:49.348Z,28.02
2018-05-09T12:31:16.932Z,28.02
2018-05-09T12:33:44.573Z,27.88
2018-05-09T12:36:12.295Z,27.58
2018-05-09T12:38:39.972Z,27.69
2018-05-09T12:41:07.563Z,27.61
2018-05-09T12:43:35.182Z,27.43
2018-05-09T12:46:02.753Z,27.17
2018-05-09T12:48:30.462Z,27.15
2018-05-09T12:50:58.109Z,27.21
2018-05-09T12:53:25.741Z,27.21
2018-05-09T12:55:53.397Z,27.05
2018-05-09T12:58:21.141Z,27.16
2018-05-09T13:00:48.750Z,27.08
2018-05-09T13:03:16.360Z,27.15
2018-05-09T13:05:44.057Z,27.27
2018-05-09T13:08:11.692Z,27.19
2018-05-09T13:10:39.276Z,27.26
2018-05-09T13:13:06.898Z,26.90
2018-05-09T13:15:34.495Z,26.39
2018-05-09T13:18:02.065Z,26.31
2018-05-09T13:20:29.760Z,26.48
2018-05-09T13:22:57.888Z,26.37
2018-05-09T13:25:25.519Z,26.37
2018-05-09T13:27:53.174Z,26.33
2018-05-09T13:30:20.756Z,26.46
2018-05-09T13:32:48.336Z,26.61
2018-05-09T13:35:16.134Z,26.61
2018-05-09T13:37:43.714Z,26.46
2018-05-09T13:40:11.358Z,26.58
2018-05-09T13:42:38.968Z,26.60
2018-05-09T13:45:06.617Z,26.64
2018-05-09T13:47:34.289Z,26.56
2018-05-09T13:50:01.914Z,26.55
2018-05-09T13:52:29.507Z,26.50
2018-05-09T13:54:57.072Z,26.36
2018-05-09T13:57:24.689Z,26.25
2018-05-09T13:59:52.334Z,26.01
2018-05-09T14:02:19.976Z,25.91
2018-05-09T14:04:47.691Z,25.99
2018-05-09T14:07:15.265Z,26.08
2018-05-09T14:09:42.897Z,26.29
2018-05-09T14:12:10.528Z,26.39
2018-05-09T14:14:38.115Z,26.47
2018-05-09T14:17:05.692Z,26.60
2018-05-09T14:19:33.311Z,26.61
2018-05-09T14:22:00.947Z,26.64
2018-05-09T14:24:28.522Z,26.61
2018-05-09T14:26:56.248Z,26.51
2018-05-09T14:29:23.845Z,26.46
2018-05-09T14:31:51.463Z,26.28
2018-05-09T14:34:19.278Z,26.22
2018-05-09T14:36:46.960Z,26.15
2018-05-09T14:39:14.613Z,26.07
2018-05-09T14:41:42.231Z,25.99
2018-05-09T14:44:09.816Z,25.85
2018-05-09T14:46:37.470Z,25.73
2018-05-09T14:49:05.169Z,25.62
2018-05-09T14:51:32.800Z,25.57
2018-05-09T14:54:00.401Z,25.54
2018-05-09T14:56:28.033Z,25.53
2018-05-09T14:58:55.669Z,25.53
2018-05-09T15:01:23.248Z,25.57
2018-05-09T15:03:50.952Z,25.56
2018-05-09T15:06:18.601Z,25.53
2018-05-09T15:08:46.252Z,25.50
2018-05-09T15:11:14.032Z,25.42
2018-05-09T15:13:41.574Z,25.35
2018-05-09T15:16:09.225Z,25.39
2018-05-09T15:18:36.858Z,25.34
2018-05-09T15:21:04.488Z,25.45
2018-05-09T15:23:32.090Z,25.46
2018-05-09T15:25:59.737Z,25.52
2018-05-09T15:28:27.314Z,25.48
2018-05-09T15:30:54.917Z,25.39
2018-05-09T15:33:22.720Z,25.40
2018-05-09T15:35:50.395Z,25.42
2018-05-09T15:38:18.029Z,25.38
2018-05-09T15:40:45.734Z,25.35
2018-05-09T15:43:13.334Z,25.31
2018-05-09T15:45:40.927Z,25.29
2018-05-09T15:48:08.576Z,25.28
2018-05-09T15:50:36.161Z,25.22
2018-05-09T15:53:03.764Z,25.17
2018-05-09T15:55:31.508Z,25.12
2018-05-09T15:57:59.076Z,25.04
2018-05-09T16:00:26.713Z,25.04
2018-05-09T16:02:54.424Z,25.02
2018-05-09T16:05:22.073Z,24.98
2018-05-09T16:07:49.733Z,24.93
2018-05-09T16:10:17.536Z,24.89
2018-05-09T16:12:45.180Z,24.89
2018-05-09T16:15:12.882Z,24.85
2018-05-09T16:17:40.621Z,24.67
2018-05-09T16:20:08.289Z,24.54
2018-05-09T16:22:36.689Z,24.44
2018-05-09T16:25:05.211Z,24.36
2018-05-09T16:27:32.800Z,24.27
2018-05-09T16:30:00.400Z,24.28
2018-05-09T16:32:28.070Z,24.28
2018-05-09T16:35:27.589Z,24.24
2018-05-09T16:37:55.404Z,24.18
2018-05-09T16:40:22.985Z,24.12
2018-05-09T16:42:50.632Z,24.08
2018-05-09T16:45:18.450Z,23.98
2018-05-09T16:47:46.020Z,23.98
2018-05-09T16:50:13.656Z,23.91
2018-05-09T16:52:41.285Z,23.83
2018-05-09T16:55:08.929Z,23.71
2018-05-09T16:57:36.518Z,23.60
2018-05-09T17:00:04.264Z,23.42
2018-05-09T17:02:31.920Z,23.27
2018-05-09T17:04:59.515Z,23.15
2018-05-09T17:07:27.285Z,23.02
2018-05-09T17:09:54.931Z,22.91
2018-05-09T17:12:22.546Z,22.75
2018-05-09T17:14:50.278Z,22.54
2018-05-09T17:17:17.912Z,22.38
2018-05-09T17:19:45.576Z,22.25
2018-05-09T17:22:28.020Z,22.21
2018-05-09T17:24:55.668Z,22.18
2018-05-09T17:27:23.326Z,22.16
2018-05-09T17:29:50.957Z,22.14
2018-05-09T17:32:18.568Z,22.11
2018-05-09T17:34:46.230Z,22.07
2018-05-09T17:37:13.865Z,22.03
2018-05-09T17:39:42.236Z,21.98
2018-05-09T17:42:09.817Z,21.94
2018-05-09T17:44:37.497Z,21.88
2018-05-09T17:47:05.104Z,21.80
2018-05-09T17:49:32.679Z,21.74
2018-05-09T17:52:00.378Z,21.68
2018-05-09T17:54:28.014Z,21.64
2018-05-09T17:56:55.651Z,21.60
2018-05-09T17:59:23.267Z,21.57
2018-05-09T18:01:50.900Z,21.51
2018-05-09T18:04:18.487Z,21.48
2018-05-09T18:06:46.985Z,21.47
2018-05-09T18:09:14.615Z,21.45
2018-05-09T18:11:42.339Z,21.45
2018-05-09T18:14:10.060Z,21.39
2018-05-09T18:16:37.650Z,21.36
2018-05-09T18:19:05.291Z,21.39
2018-05-09T18:21:32.931Z,21.38
2018-05-09T18:24:00.645Z,21.37
2018-05-09T18:26:28.255Z,21.31
2018-05-09T18:28:56.673Z,21.28
2018-05-09T18:31:24.313Z,21.22
2018-05-09T18:33:51.907Z,21.13
2018-05-09T18:36:19.627Z,21.01
2018-05-09T18:38:47.281Z,20.93
2018-05-09T18:41:14.856Z,20.90
2018-05-09T18:43:42.666Z,20.88
2018-05-09T18:46:10.321Z,20.89
2018-05-09T18:48:39.196Z,20.82
2018-05-09T18:51:06.896Z,20.81
2018-05-09T18:53:34.726Z,20.84
2018-05-09T18:56:02.475Z,20.87
2018-05-09T18:58:30.204Z,20.81
2018-05-09T19:00:57.871Z,20.78
2018-05-09T19:03:25.460Z,20.72
2018-05-09T19:05:53.300Z,20.71
2018-05-09T19:08:21.028Z,20.70
2018-05-09T19:10:48.698Z,20.66
2018-05-09T19:13:16.454Z,20.64
2018-05-09T19:15:44.128Z,20.60
2018-05-09T19:18:11.720Z,20.55
2018-05-09T19:20:39.344Z,20.53
2018-05-09T19:23:07.060Z,20.51
2018-05-09T19:25:34.660Z,20.42
2018-05-09T19:28:02.297Z,20.24
2018-05-09T19:30:29.892Z,20.12
2018-05-09T19:32:57.465Z,20.06
2018-05-09T19:35:25.153Z,20.05
2018-05-09T19:37:52.741Z,20.03
2018-05-09T19:40:20.337Z,20.03
2018-05-09T19:42:48.164Z,20.03
2018-05-09T19:45:15.731Z,20.02
2018-05-09T19:47:43.403Z,20.03
2018-05-09T19:50:10.998Z,20.03
2018-05-09T19:52:38.643Z,19.99
2018-05-09T19:55:06.241Z,19.94
2018-05-09T19:57:33.901Z,19.88
2018-05-09T20:00:01.553Z,19.84
2018-05-09T20:02:29.160Z,19.79
2018-05-09T20:04:56.964Z,19.71
2018-05-09T20:07:24.556Z,19.62
2018-05-09T20:09:52.224Z,19.56
2018-05-09T20:12:19.956Z,19.47
2018-05-09T20:14:47.977Z,19.41
2018-05-09T20:17:15.571Z,19.32
2018-05-09T20:19:43.210Z,19.23
2018-05-09T20:22:11.751Z,19.19
2018-05-09T20:24:39.405Z,19.10
2018-05-09T20:27:07.047Z,19.00
2018-05-09T20:29:34.629Z,18.93
2018-05-09T20:32:14.256Z,18.88
2018-05-09T20:34:41.841Z,18.86
2018-05-09T20:37:09.440Z,18.82
2018-05-09T20:39:37.063Z,18.78
2018-05-09T20:42:04.706Z,18.76
2018-05-09T20:44:32.269Z,18.70
2018-05-09T20:46:59.961Z,18.69
2018-05-09T20:49:27.606Z,18.70
2018-05-09T20:51:55.368Z,18.69
2018-05-09T20:54:23.094Z,18.71
2018-05-09T20:56:50.691Z,18.71
2018-05-09T20:59:18.459Z,18.72
2018-05-09T21:01:49.088Z,18.72
2018-05-09T21:04:16.703Z,18.71
2018-05-09T21:06:44.285Z,18.72
2018-05-09T21:09:12.885Z,18.70
2018-05-09T21:11:41.261Z,18.66
2018-05-09T21:14:08.869Z,18.65
2018-05-09T21:16:36.678Z,18.64
2018-05-09T21:19:04.371Z,18.65
2018-05-09T21:21:31.931Z,18.64
2018-05-09T21:23:59.573Z,18.65
2018-05-09T21:26:27.168Z,18.60
2018-05-09T21:28:54.789Z,18.55
2018-05-09T21:31:22.424Z,18.47
2018-05-09T21:33:50.013Z,18.40
2018-05-09T21:36:17.598Z,18.41
2018-05-09T21:38:45.308Z,18.42
2018-05-09T21:41:12.957Z,18.42
2018-05-09T21:43:40.596Z,18.46
2018-05-09T21:46:08.333Z,18.47
2018-05-09T21:48:35.966Z,18.48
2018-05-09T21:51:03.555Z,18.48
2018-05-09T21:53:31.187Z,18.54
2018-05-09T21:55:58.772Z,18.57
2018-05-09T21:58:26.444Z,18.60
2018-05-09T22:00:54.142Z,18.62
2018-05-09T22:03:21.729Z,18.61
2018-05-09T22:05:49.711Z,18.61
2018-05-09T22:08:17.339Z,18.61
2018-05-09T22:10:44.962Z,18.63
2018-05-09T22:13:12.552Z,18.66
2018-05-09T22:15:40.379Z,18.66
2018-05-09T22:18:07.967Z,18.65
2018-05-09T22:20:35.535Z,18.67
2018-05-09T22:23:03.247Z,18.66
2018-05-09T22:25:30.821Z,18.63
2018-05-09T22:27:58.404Z,18.60
2018-05-09T22:30:26.111Z,18.61
2018-05-09T22:32:53.678Z,18.64
2018-05-09T22:35:21.300Z,18.65
2018-05-09T22:37:48.968Z,18.63
2018-05-09T22:40:16.571Z,18.62
2018-05-09T22:42:44.205Z,18.64
2018-05-09T22:45:11.828Z,18.64
2018-05-09T22:47:39.408Z,18.63
2018-05-09T22:50:06.971Z,18.66
2018-05-09T22:52:34.686Z,18.68
2018-05-09T22:55:02.418Z,18.70
2018-05-09T22:57:30.601Z,18.76
2018-05-09T22:59:58.278Z,18.80
2018-05-09T23:02:26.431Z,18.84
2018-05-09T23:04:54.031Z,18.85
2018-05-09T23:07:21.660Z,18.87
2018-05-09T23:09:49.244Z,18.86
2018-05-09T23:12:16.823Z,18.87
2018-05-09T23:14:44.548Z,18.91
2018-05-09T23:17:12.199Z,18.93
2018-05-09T23:19:39.747Z,18.93
2018-05-09T23:22:07.516Z,18.92
2018-05-09T23:24:35.116Z,18.93
2018-05-09T23:27:02.683Z,18.92
2018-05-09T23:29:30.405Z,18.90
2018-05-09T23:31:58.044Z,18.86
2018-05-09T23:34:25.724Z,18.83
2018-05-09T23:36:53.380Z,18.85
2018-05-09T23:39:20.985Z,18.92
2018-05-09T23:41:48.616Z,18.88
2018-05-09T23:44:16.422Z,18.88
2018-05-09T23:46:44.049Z,18.89
2018-05-09T23:49:11.704Z,18.89
2018-05-09T23:51:39.339Z,18.89
2018-05-09T23:54:06.914Z,18.88
2018-05-09T23:56:34.560Z,18.87
2018-05-09T23:59:02.176Z,18.88
